Local Weather Ingen bokad jour idag Monday 16th of December
Flygplats METAR TAF
Airport METAR TAF
ESSL - Linköping160820Z 22006KT CAVOK 03/02 Q1000= 160830Z 1609/1618 21007KT CAVOK TEMPO 1613/1618 BKN013=
ESSP - Norrköping160820Z VRB03KT 9999 BKN019 02/01 Q1000 RWY 27 WET OR WATER PATCHES 51-100 PCT BA GOOD= 160830Z 1609/1618 23005KT 9999 BKN020 TEMPO 1613/1618 4000 RA DZ BKN012=
ESGJ - Jönköping160820Z 22012KT 9999 BKN006 03/02 Q1000= 160830Z 1609/1618 22012KT 9999 SCT006 BKN020 TEMPO 1609/1611 BKN006 TEMPO 1611/1618 4000 RA BKN004 BKN030CB=
ESKN - Skavsta160820Z 21007KT 9999 FEW012 BKN017 02/02 Q0999 RWY 08 WET OR WATER PATCHES 51-100 PCT 1 MM BA GOOD= 160530Z 1606/1706 26004KT 9999 SCT006 BKN015 TEMPO 1606/1608 BKN006 TEMPO 1616/1618 3000 RA BKN010=
ESSV - Visby160820Z 24014KT 9999 BKN015 05/03 Q1002= AMD 160832Z 1609/1618 24015KT 9999 BKN013 BECMG 1609/1610 SCT020=
ESGG - Göteborg160820Z 19010KT 7000 -RA SCT015 BKN026 04/02 Q0999 RWY 21 WET OR WATER PATCHES 51-100 PCT BA GOOD= 160530Z 1606/1706 21008KT 9999 BKN035 TEMPO 1608/1615 4000 RA BKN004 BKN020CB TEMPO 1615/1621 SHRA BKN006 BKN020CB PROB40 1621/1706 2000 BR BKN004=
FLEET STATUS
Flygplan Tid till service Tid till flygstopp Flygtid Landningar
Aircraft Time to service Time to stop Total time Landings
SE-IUD40.6 h50.6 h11 759.4 h23 665 st.
SE-KIT26.9 h36.9 h11 973.1 h22 994 st.
SE-KMH6.5 h16.5 h16 093.5 h60 206 st.
SE-LRL7.5 h12.5 h792.5 h1 424 st.
SE-MEB30.7 h40.7 h1 469.3 h4 451 st.
SE-SIMN/AN/A1 218.2 h128 st.
PPR
Ankomst Avgång Flygplan Namn Bränsle
Arrival Departure Aircraft Name Fuel
NOTAM
>>> ESSL/LINKOPING/SAAB <<<
+ (SNOWTAM 0028 A)ESSL B)12160500 C)11 F)1/1/1 G)XX/XX/XX H)5/5/5 N)2/5 R)1/5) REPORTED: 16 DEC 2019 05:00 - AERODROME CONTROL TOWER (TWR) HOURS OF SERVICE ARE NOW MON-FRI 0445-2215, SAT 0445-0545 0930-1115 1645-1815, SUN 0445-0545 0930-1115 1600-1745 2045-2215 FROM: 04 NOV 2019 08:28 TO: 22 DEC 2019 23:59 ES/B3658/19
>>> ESCF/LINKOPING/MALMEN <<<